British Gannet — MGRX9 — position and weather

sailwx.info

Track history (hours):
 
Tides and Currents Weather Stations Pressure Air Temp Water Temp Dewpoint Dewpoint Depression Visibility Wind Speed Wind Dir Waves Ship Positions

British Gannet

Last reported at 2014-Aug-27 21:00 UTC. Time now 2014-Aug-28 15:29 UTC.
Position S 10°42' E 145°42'.

Length 233 m; draft 8.5 m.

Type: Tanker. MMSI: 232150000.

Wind from 160 at 26 knots

Waves 1.0 meters (3 feet), 3 second period

Barometer 1012.9 mb
Air temperature 24.0 ° C
Visibility: greater than 5.4 NM
Dewpoint 17.6 ° C
Water temperature 22.4 ° C

Date/timePositionNaut miles runAvg speedWind from/ knotsBaromVisibWave heightAir tempDewpointWater temp
2014-Aug-27 21:00S 10°42' E 145°42'18912.6 160 / 261012.9 5.4 1.024.017.622.4
2014-Aug-27 06:00S 12°54' E 148°00'38413.2 150 / 181012.210.8 1.025.520.223.0
2014-Aug-26 01:00S 17°36' E 152°30'5711.3 190 / 241015.210.8 1.025.018.822.0
2014-Aug-25 20:00S 18°30' E 152°48'19013.6 150 / 211015.1 5.4 1.522.017.221.2
2014-Aug-25 06:00S 21°30' E 153°54'6012.1 190 / 161014.410.8 1.022.018.921.0
2014-Aug-25 01:00S 22°30' E 154°00'24812.5 190 / 201016.710.8 1.022.017.220.9
2014-Aug-24 05:13S 26°36' E 153°25'912.0
2014-Aug-24 04:30S 26°40' E 153°17'8 8.2
2014-Aug-24 03:33S 26°46' E 153°12'1312.7
2014-Aug-24 02:34S 26°59' E 153°14'1414.2
2014-Aug-24 01:33S 27°11' E 153°21'1313.1
2014-Aug-24 00:34S 27°21' E 153°11'2 1.0
2014-Aug-23 22:27S 27°23' E 153°09'0 0.0
2014-Aug-23 21:30S 27°23' E 153°09'0 0.0
2014-Aug-23 20:24S 27°23' E 153°09'0 0.0
2014-Aug-23 19:24S 27°23' E 153°09'0 0.0
2014-Aug-23 03:05S 27°23' E 153°09'0 0.0
2014-Aug-23 02:29S 27°23' E 153°09'0 0.0
2014-Aug-23 01:32S 27°23' E 153°09'0 0.0
2014-Aug-23 00:23S 27°23' E 153°09'0 0.0
2014-Aug-22 23:14S 27°23' E 153°09'0 0.0
2014-Aug-22 22:26S 27°23' E 153°09'0 0.0
2014-Aug-22 21:29S 27°23' E 153°09'0 0.0
2014-Aug-22 20:26S 27°23' E 153°09'0 0.0
2014-Aug-22 19:32S 27°23' E 153°09'0 0.0
2014-Aug-22 18:29S 27°23' E 153°09'0 0.0
2014-Aug-22 17:23S 27°23' E 153°09'0 0.0
2014-Aug-22 16:32S 27°23' E 153°09'0 0.0
2014-Aug-22 14:32S 27°23' E 153°09'0 0.0
2014-Aug-22 13:32S 27°23' E 153°09'0 0.0
2014-Aug-22 12:29S 27°23' E 153°09'0 0.0
2014-Aug-22 11:29S 27°23' E 153°09'1 0.8
2014-Aug-22 10:33S 27°22' E 153°10'9 9.5
2014-Aug-22 09:33S 27°16' E 153°17'1111.0
2014-Aug-22 08:33S 27°05' E 153°18'1313.2
2014-Aug-22 07:33S 26°54' E 153°11'1110.6
2014-Aug-22 06:33S 26°43' E 153°11'6 5.8
2014-Aug-22 05:33S 26°42' E 153°17'3 2.5
2014-Aug-22 04:33S 26°43' E 153°20'9 9.3
2014-Aug-22 03:33S 26°49' E 153°28'1413.6
2014-Aug-22 02:33S 26°57' E 153°40'1413.5
2014-Aug-22 01:33S 27°06' E 153°52'25212.9
2014-Aug-21 06:00S 29°42' E 157°36'32113.4 120 / 151022.810.8 0.519.511.416.5
2014-Aug-20 06:00S 32°48' E 162°42'   180 / 161013.110.8 1.017.013.515.5
Track history (hours):
 
Tides and Currents Weather Stations Pressure Air Temp Water Temp Dewpoint Dewpoint Depression Visibility Wind Speed Wind Dir Waves Ship Positions

British Gannet

Last reported at 2014-Aug-27 21:00 UTC. Time now 2014-Aug-28 15:29 UTC.
Position S 10°42' E 145°42'.

Length 233 m; draft 8.5 m.

Type: Tanker. MMSI: 232150000.

Wind from 160 at 26 knots

Waves 1.0 meters (3 feet), 3 second period

Barometer 1012.9 mb
Air temperature 24.0 ° C
Visibility: greater than 5.4 NM
Dewpoint 17.6 ° C
Water temperature 22.4 ° C

Date/timePositionNaut miles runAvg speedWind from/ knotsBaromVisibWave heightAir tempDewpointWater temp
2014-Aug-27 21:00S 10°42' E 145°42'18912.6 160 / 261012.9 5.4 1.024.017.622.4
2014-Aug-27 06:00S 12°54' E 148°00'38413.2 150 / 181012.210.8 1.025.520.223.0
2014-Aug-26 01:00S 17°36' E 152°30'5711.3 190 / 241015.210.8 1.025.018.822.0
2014-Aug-25 20:00S 18°30' E 152°48'19013.6 150 / 211015.1 5.4 1.522.017.221.2
2014-Aug-25 06:00S 21°30' E 153°54'6012.1 190 / 161014.410.8 1.022.018.921.0
2014-Aug-25 01:00S 22°30' E 154°00'24812.5 190 / 201016.710.8 1.022.017.220.9
2014-Aug-24 05:13S 26°36' E 153°25'912.0
2014-Aug-24 04:30S 26°40' E 153°17'8 8.2
2014-Aug-24 03:33S 26°46' E 153°12'1312.7
2014-Aug-24 02:34S 26°59' E 153°14'1414.2
2014-Aug-24 01:33S 27°11' E 153°21'1313.1
2014-Aug-24 00:34S 27°21' E 153°11'2 1.0
2014-Aug-23 22:27S 27°23' E 153°09'0 0.0
2014-Aug-23 21:30S 27°23' E 153°09'0 0.0
2014-Aug-23 20:24S 27°23' E 153°09'0 0.0
2014-Aug-23 19:24S 27°23' E 153°09'0 0.0
2014-Aug-23 03:05S 27°23' E 153°09'0 0.0
2014-Aug-23 02:29S 27°23' E 153°09'0 0.0
2014-Aug-23 01:32S 27°23' E 153°09'0 0.0
2014-Aug-23 00:23S 27°23' E 153°09'0 0.0
2014-Aug-22 23:14S 27°23' E 153°09'0 0.0
2014-Aug-22 22:26S 27°23' E 153°09'0 0.0
2014-Aug-22 21:29S 27°23' E 153°09'0 0.0
2014-Aug-22 20:26S 27°23' E 153°09'0 0.0
2014-Aug-22 19:32S 27°23' E 153°09'0 0.0
2014-Aug-22 18:29S 27°23' E 153°09'0 0.0
2014-Aug-22 17:23S 27°23' E 153°09'0 0.0
2014-Aug-22 16:32S 27°23' E 153°09'0 0.0
2014-Aug-22 14:32S 27°23' E 153°09'0 0.0
2014-Aug-22 13:32S 27°23' E 153°09'0 0.0
2014-Aug-22 12:29S 27°23' E 153°09'0 0.0
2014-Aug-22 11:29S 27°23' E 153°09'1 0.8
2014-Aug-22 10:33S 27°22' E 153°10'9 9.5
2014-Aug-22 09:33S 27°16' E 153°17'1111.0
2014-Aug-22 08:33S 27°05' E 153°18'1313.2
2014-Aug-22 07:33S 26°54' E 153°11'1110.6
2014-Aug-22 06:33S 26°43' E 153°11'6 5.8
2014-Aug-22 05:33S 26°42' E 153°17'3 2.5
2014-Aug-22 04:33S 26°43' E 153°20'9 9.3
2014-Aug-22 03:33S 26°49' E 153°28'1413.6
2014-Aug-22 02:33S 26°57' E 153°40'1413.5
2014-Aug-22 01:33S 27°06' E 153°52'25212.9
2014-Aug-21 06:00S 29°42' E 157°36'32113.4 120 / 151022.810.8 0.519.511.416.5
2014-Aug-20 06:00S 32°48' E 162°42'   180 / 161013.110.8 1.017.013.515.5

Dump ship's entire track history